Kingdom City, MO

8:17 PM CST on November 24, 2014 (GMT -0600)
YMCA | Change Station
CLOSE
Current Station
Personal Weather Station
Location: Fulton, MO
Elevation: 853 ft
Nearby Weather Stations

Elev 853 ft 38.86 °N, 91.94 °W | Updated 7 minutes ago

Overcast
Overcast
33.9 °F
Feels Like 27 °F
N
8.0
Wind Variable Wind from WNW
Gusts 16.0 mph

Today
High -- | Low -- °F
--% Chance of Precip.
Yesterday
High -- | Low -- °F
Precip. -- in
7:00 AM 4:48 PM
Waxing Crescent, 8% visible
Pressure 29.99 in
Visibility 10.0 miles
Clouds Mostly Cloudy 4400 ft
Windchill 27 °F
Dew Point 26 °F
Humidity 73%
Rainfall 0.33 in
Snow Depth Not available.
UV 0 out of 12
Pollen .30 out of 12
Air Quality Not available.
Flu Activity Not available.
METAR KCOU 250154Z 29013G20KT 10SM BKN044 02/M04 A2997 RMK AO2 SLP154 T00171044

More Conditions Fewer Conditions

Pressure 29.99 in
Visibility 10.0 miles
Clouds Mostly Cloudy 4400 ft
Windchill 27 °F
Dew Point 26 °F
Humidity 73%
Rainfall 0.33 in
Snow Depth Not available.
UV 0 out of 12
Pollen .30 out of 12
Air Quality Not available.
Flu Activity Not available.
METAR KCOU 250154Z 29013G20KT 10SM BKN044 02/M04 A2997 RMK AO2 SLP154 T00171044

More Conditions Fewer Conditions

10-Day Weather Forecast

Almanac

Astronomy

Nov. 24, 2014 Rise Set
Actual Time
Civil Twilight
Nautical Twilight
Astronomical Twilight
Moon
Length of Visible Light
Length of Day
Tomorrow will be .
, % of the Moon is Illuminated

Today's Extremes

State Highs State Lows

Community

WunderPhotos

Upload Photos

1,773,460 photos uploaded!

WunderBlogs® & News

Nearby

Air Quality

  Air Quality AQ Index Pollutant
Not available.

Snow Depth

Station Depth Elevation

Earthquake Activity

City Distance Mag. Time & Date
Minimum magnitude displayed is 2.5.

Coastal Water Temperatures

Place Temperature

Nearby Weather Stations